sensor_id;sensor_type;location;lat;lon;timestamp;pressure;altitude;pressure_sealevel;temperature;humidity
8101;BME280;4093;53.470;9.832;2022-07-29T00:00:23;102097.66;;;17.76;68.62
8101;BME280;4093;53.470;9.832;2022-07-29T00:02:49;102092.66;;;18.02;67.39
8101;BME280;4093;53.470;9.832;2022-07-29T00:05:16;102072.09;;;17.53;69.69
8101;BME280;4093;53.470;9.832;2022-07-29T00:07:44;102086.41;;;17.74;68.40
8101;BME280;4093;53.470;9.832;2022-07-29T00:10:10;102098.16;;;17.92;67.94
8101;BME280;4093;53.470;9.832;2022-07-29T00:12:37;102105.34;;;18.18;66.98
8101;BME280;4093;53.470;9.832;2022-07-29T00:15:04;102090.41;;;18.20;66.79
8101;BME280;4093;53.470;9.832;2022-07-29T00:17:31;102090.13;;;18.31;66.49
8101;BME280;4093;53.470;9.832;2022-07-29T00:19:59;102085.59;;;18.37;66.09
8101;BME280;4093;53.470;9.832;2022-07-29T00:22:25;102067.72;;;18.20;66.87
8101;BME280;4093;53.470;9.832;2022-07-29T00:24:53;102063.44;;;18.18;67.28
8101;BME280;4093;53.470;9.832;2022-07-29T00:27:20;102061.84;;;18.12;66.85
8101;BME280;4093;53.470;9.832;2022-07-29T00:29:47;102055.00;;;18.07;66.70
8101;BME280;4093;53.470;9.832;2022-07-29T00:32:13;102030.56;;;17.73;67.94
8101;BME280;4093;53.470;9.832;2022-07-29T00:34:40;102044.34;;;17.82;67.92
8101;BME280;4093;53.470;9.832;2022-07-29T00:37:25;102038.34;;;17.78;67.83
8101;BME280;4093;53.470;9.832;2022-07-29T00:39:51;102031.94;;;17.55;68.52
8101;BME280;4093;53.470;9.832;2022-07-29T00:42:19;102032.41;;;17.35;68.97
8101;BME280;4093;53.470;9.832;2022-07-29T00:44:46;102005.34;;;17.02;70.35
8101;BME280;4093;53.470;9.832;2022-07-29T00:47:12;102021.53;;;17.18;69.88
8101;BME280;4093;53.470;9.832;2022-07-29T00:49:40;102045.34;;;17.42;69.11
8101;BME280;4093;53.470;9.832;2022-07-29T00:52:09;102045.25;;;17.46;68.28
8101;BME280;4093;53.470;9.832;2022-07-29T00:54:37;102064.00;;;17.62;67.61
8101;BME280;4093;53.470;9.832;2022-07-29T00:57:06;102051.25;;;17.48;68.26
8101;BME280;4093;53.470;9.832;2022-07-29T00:59:34;102032.53;;;17.31;68.31
8101;BME280;4093;53.470;9.832;2022-07-29T01:02:01;102052.84;;;17.55;67.37
8101;BME280;4093;53.470;9.832;2022-07-29T01:04:28;102052.72;;;17.60;67.21
8101;BME280;4093;53.470;9.832;2022-07-29T01:06:56;102011.00;;;17.21;68.10
8101;BME280;4093;53.470;9.832;2022-07-29T01:09:23;102016.94;;;17.26;68.50
8101;BME280;4093;53.470;9.832;2022-07-29T01:11:50;101976.50;;;16.68;70.21
8101;BME280;4093;53.470;9.832;2022-07-29T01:14:17;102026.06;;;17.10;69.37
8101;BME280;4093;53.470;9.832;2022-07-29T01:16:51;101995.78;;;17.01;68.48
8101;BME280;4093;53.470;9.832;2022-07-29T01:19:39;102041.09;;;17.38;68.00
8101;BME280;4093;53.470;9.832;2022-07-29T01:22:23;102013.97;;;17.06;69.31
8101;BME280;4093;53.470;9.832;2022-07-29T01:25:05;102020.75;;;17.15;69.45
8101;BME280;4093;53.470;9.832;2022-07-29T01:27:41;102003.09;;;16.87;70.62
8101;BME280;4093;53.470;9.832;2022-07-29T01:30:12;102023.16;;;17.22;68.72
8101;BME280;4093;53.470;9.832;2022-07-29T01:32:39;101954.75;;;16.29;73.08
8101;BME280;4093;53.470;9.832;2022-07-29T01:35:10;101972.75;;;16.42;72.75
8101;BME280;4093;53.470;9.832;2022-07-29T01:37:45;101970.59;;;16.21;73.79
8101;BME280;4093;53.470;9.832;2022-07-29T01:40:20;102017.72;;;16.54;73.01
8101;BME280;4093;53.470;9.832;2022-07-29T01:42:50;102014.25;;;16.55;72.42
8101;BME280;4093;53.470;9.832;2022-07-29T01:45:23;102038.28;;;16.71;72.48
8101;BME280;4093;53.470;9.832;2022-07-29T01:47:56;101983.50;;;16.27;73.08
8101;BME280;4093;53.470;9.832;2022-07-29T01:50:37;102011.06;;;16.40;72.84
8101;BME280;4093;53.470;9.832;2022-07-29T01:53:08;102012.13;;;16.32;73.63
8101;BME280;4093;53.470;9.832;2022-07-29T01:55:38;102006.69;;;16.41;72.42
8101;BME280;4093;53.470;9.832;2022-07-29T01:58:07;102004.88;;;16.45;72.58
8101;BME280;4093;53.470;9.832;2022-07-29T02:00:37;101982.84;;;16.17;73.29
8101;BME280;4093;53.470;9.832;2022-07-29T02:03:07;102011.97;;;16.39;72.93
8101;BME280;4093;53.470;9.832;2022-07-29T02:05:37;102024.00;;;16.47;73.07
8101;BME280;4093;53.470;9.832;2022-07-29T02:08:06;102035.03;;;16.59;72.31
8101;BME280;4093;53.470;9.832;2022-07-29T02:10:35;101980.56;;;16.01;74.05
8101;BME280;4093;53.470;9.832;2022-07-29T02:13:03;102005.19;;;16.31;73.21
8101;BME280;4093;53.470;9.832;2022-07-29T02:15:32;102018.97;;;16.37;73.53
8101;BME280;4093;53.470;9.832;2022-07-29T02:18:04;101976.47;;;15.87;75.57
8101;BME280;4093;53.470;9.832;2022-07-29T02:20:33;101997.66;;;16.17;73.76
8101;BME280;4093;53.470;9.832;2022-07-29T02:23:00;101995.72;;;15.82;76.12
8101;BME280;4093;53.470;9.832;2022-07-29T02:25:29;102008.53;;;15.94;76.25
8101;BME280;4093;53.470;9.832;2022-07-29T02:27:57;101983.88;;;15.64;76.59
8101;BME280;4093;53.470;9.832;2022-07-29T02:30:27;101989.13;;;15.61;77.26
8101;BME280;4093;53.470;9.832;2022-07-29T02:32:55;102018.44;;;15.77;76.47
8101;BME280;4093;53.470;9.832;2022-07-29T02:35:24;101998.78;;;15.56;76.89
8101;BME280;4093;53.470;9.832;2022-07-29T02:37:52;102018.38;;;15.78;76.38
8101;BME280;4093;53.470;9.832;2022-07-29T02:40:34;102009.41;;;15.93;75.25
8101;BME280;4093;53.470;9.832;2022-07-29T02:43:02;102035.97;;;16.15;74.99
8101;BME280;4093;53.470;9.832;2022-07-29T02:45:32;101990.06;;;15.57;77.23
8101;BME280;4093;53.470;9.832;2022-07-29T02:48:00;102039.53;;;16.11;75.09
8101;BME280;4093;53.470;9.832;2022-07-29T02:50:34;102002.91;;;15.70;76.45
8101;BME280;4093;53.470;9.832;2022-07-29T02:53:07;102010.72;;;15.70;76.52
8101;BME280;4093;53.470;9.832;2022-07-29T02:55:37;102017.47;;;15.81;75.92
8101;BME280;4093;53.470;9.832;2022-07-29T02:58:12;101988.56;;;15.45;77.50
8101;BME280;4093;53.470;9.832;2022-07-29T03:00:41;102012.53;;;15.67;76.24
8101;BME280;4093;53.470;9.832;2022-07-29T03:03:12;102022.66;;;15.82;75.93
8101;BME280;4093;53.470;9.832;2022-07-29T03:05:40;102002.22;;;15.58;77.12
8101;BME280;4093;53.470;9.832;2022-07-29T03:08:11;102024.44;;;15.80;75.98
8101;BME280;4093;53.470;9.832;2022-07-29T03:10:39;102009.09;;;15.62;77.11
8101;BME280;4093;53.470;9.832;2022-07-29T03:13:09;102002.25;;;15.56;77.29
8101;BME280;4093;53.470;9.832;2022-07-29T03:15:38;102007.34;;;15.64;76.88
8101;BME280;4093;53.470;9.832;2022-07-29T03:18:05;102019.75;;;15.49;77.87
8101;BME280;4093;53.470;9.832;2022-07-29T03:20:33;101991.22;;;15.40;77.79
8101;BME280;4093;53.470;9.832;2022-07-29T03:23:01;102038.69;;;15.61;78.49
8101;BME280;4093;53.470;9.832;2022-07-29T03:25:28;102031.38;;;15.81;76.51
8101;BME280;4093;53.470;9.832;2022-07-29T03:27:54;102006.59;;;15.56;78.02
8101;BME280;4093;53.470;9.832;2022-07-29T03:30:22;102012.66;;;15.58;77.61
8101;BME280;4093;53.470;9.832;2022-07-29T03:32:49;102015.22;;;15.61;77.48
8101;BME280;4093;53.470;9.832;2022-07-29T03:35:16;102055.59;;;15.89;77.36
8101;BME280;4093;53.470;9.832;2022-07-29T03:37:43;102007.38;;;15.61;77.77
8101;BME280;4093;53.470;9.832;2022-07-29T03:40:13;102019.47;;;15.65;77.88
8101;BME280;4093;53.470;9.832;2022-07-29T03:42:43;102010.13;;;15.53;78.49
8101;BME280;4093;53.470;9.832;2022-07-29T03:45:13;102037.44;;;15.82;77.46
8101;BME280;4093;53.470;9.832;2022-07-29T03:47:44;102033.00;;;15.87;77.14
8101;BME280;4093;53.470;9.832;2022-07-29T03:50:12;102005.69;;;15.57;78.26
8101;BME280;4093;53.470;9.832;2022-07-29T03:52:40;102016.03;;;15.63;78.22
8101;BME280;4093;53.470;9.832;2022-07-29T03:55:08;102015.25;;;15.58;78.52
8101;BME280;4093;53.470;9.832;2022-07-29T03:57:37;102036.69;;;15.77;77.54
8101;BME280;4093;53.470;9.832;2022-07-29T04:00:07;102044.41;;;15.83;77.86
8101;BME280;4093;53.470;9.832;2022-07-29T04:02:34;102017.66;;;15.71;77.42
8101;BME280;4093;53.470;9.832;2022-07-29T04:05:02;102036.66;;;15.78;77.50
8101;BME280;4093;53.470;9.832;2022-07-29T04:07:28;102027.22;;;15.71;78.50
8101;BME280;4093;53.470;9.832;2022-07-29T04:09:55;102025.25;;;15.84;77.65
8101;BME280;4093;53.470;9.832;2022-07-29T04:12:22;102042.38;;;15.99;77.29
8101;BME280;4093;53.470;9.832;2022-07-29T04:14:50;102047.59;;;15.97;76.97
8101;BME280;4093;53.470;9.832;2022-07-29T04:17:16;102017.31;;;15.88;77.28
8101;BME280;4093;53.470;9.832;2022-07-29T04:19:43;102049.56;;;16.29;76.05
8101;BME280;4093;53.470;9.832;2022-07-29T04:22:10;102010.91;;;16.06;76.92
8101;BME280;4093;53.470;9.832;2022-07-29T04:24:36;102051.59;;;16.58;75.55
8101;BME280;4093;53.470;9.832;2022-07-29T04:27:03;101996.28;;;15.98;76.99
8101;BME280;4093;53.470;9.832;2022-07-29T04:29:30;101954.34;;;15.62;78.27
8101;BME280;4093;53.470;9.832;2022-07-29T04:31:58;102022.75;;;16.23;76.78
8101;BME280;4093;53.470;9.832;2022-07-29T04:34:24;101985.91;;;15.94;76.95
8101;BME280;4093;53.470;9.832;2022-07-29T04:36:51;102039.72;;;16.43;75.94
8101;BME280;4093;53.470;9.832;2022-07-29T04:39:17;102026.38;;;16.15;77.65
8101;BME280;4093;53.470;9.832;2022-07-29T04:41:44;102039.91;;;16.36;75.90
8101;BME280;4093;53.470;9.832;2022-07-29T04:44:11;102037.09;;;16.43;76.34
8101;BME280;4093;53.470;9.832;2022-07-29T04:46:38;102034.78;;;16.30;76.82
8101;BME280;4093;53.470;9.832;2022-07-29T04:49:05;102033.72;;;16.38;76.03
8101;BME280;4093;53.470;9.832;2022-07-29T04:51:33;102018.41;;;16.22;77.03
8101;BME280;4093;53.470;9.832;2022-07-29T04:53:59;102013.44;;;16.11;76.97
8101;BME280;4093;53.470;9.832;2022-07-29T04:56:26;102014.28;;;16.10;77.41
8101;BME280;4093;53.470;9.832;2022-07-29T04:58:53;102010.03;;;16.06;77.69
8101;BME280;4093;53.470;9.832;2022-07-29T05:01:20;102040.00;;;16.70;75.29
8101;BME280;4093;53.470;9.832;2022-07-29T05:03:46;102036.00;;;16.55;76.30
8101;BME280;4093;53.470;9.832;2022-07-29T05:06:14;102045.75;;;16.87;75.38
8101;BME280;4093;53.470;9.832;2022-07-29T05:08:41;102002.34;;;16.41;76.13
8101;BME280;4093;53.470;9.832;2022-07-29T05:11:07;102035.16;;;16.94;74.30
8101;BME280;4093;53.470;9.832;2022-07-29T05:13:34;102070.06;;;17.28;73.88
8101;BME280;4093;53.470;9.832;2022-07-29T05:16:01;102037.06;;;17.24;73.40
8101;BME280;4093;53.470;9.832;2022-07-29T05:18:28;102055.53;;;17.52;72.58
8101;BME280;4093;53.470;9.832;2022-07-29T05:20:54;102049.88;;;18.33;70.33
8101;BME280;4093;53.470;9.832;2022-07-29T05:23:22;102039.59;;;18.57;68.95
8101;BME280;4093;53.470;9.832;2022-07-29T05:25:49;101942.78;;;17.30;72.56
8101;BME280;4093;53.470;9.832;2022-07-29T05:28:16;102012.47;;;17.98;71.47
8101;BME280;4093;53.470;9.832;2022-07-29T05:30:42;101951.38;;;17.68;71.39
8101;BME280;4093;53.470;9.832;2022-07-29T05:33:09;101919.38;;;17.26;72.64
8101;BME280;4093;53.470;9.832;2022-07-29T05:35:36;101982.31;;;17.85;71.46
8101;BME280;4093;53.470;9.832;2022-07-29T05:38:03;102023.03;;;18.56;68.49
8101;BME280;4093;53.470;9.832;2022-07-29T05:40:31;101992.16;;;19.47;65.50
8101;BME280;4093;53.470;9.832;2022-07-29T05:42:59;101912.00;;;18.60;67.22
8101;BME280;4093;53.470;9.832;2022-07-29T05:45:25;101949.50;;;18.62;68.83
8101;BME280;4093;53.470;9.832;2022-07-29T05:47:52;102005.19;;;19.50;66.76
8101;BME280;4093;53.470;9.832;2022-07-29T05:50:19;101929.75;;;19.05;66.63
8101;BME280;4093;53.470;9.832;2022-07-29T05:52:45;101950.38;;;19.16;66.83
8101;BME280;4093;53.470;9.832;2022-07-29T05:55:12;101893.56;;;18.07;70.03
8101;BME280;4093;53.470;9.832;2022-07-29T05:57:40;101906.03;;;17.99;70.74
8101;BME280;4093;53.470;9.832;2022-07-29T06:00:09;101888.78;;;17.61;72.54
8101;BME280;4093;53.470;9.832;2022-07-29T06:02:36;101944.13;;;18.09;71.28
8101;BME280;4093;53.470;9.832;2022-07-29T06:05:03;101934.50;;;18.10;70.95
8101;BME280;4093;53.470;9.832;2022-07-29T06:07:30;101927.25;;;17.90;71.85
8101;BME280;4093;53.470;9.832;2022-07-29T06:09:57;101908.88;;;17.91;71.50
8101;BME280;4093;53.470;9.832;2022-07-29T06:12:24;101938.44;;;18.24;70.60
8101;BME280;4093;53.470;9.832;2022-07-29T06:14:52;101934.88;;;18.27;70.18
8101;BME280;4093;53.470;9.832;2022-07-29T06:17:19;101921.84;;;17.96;71.42
8101;BME280;4093;53.470;9.832;2022-07-29T06:19:45;101944.81;;;18.14;71.18
8101;BME280;4093;53.470;9.832;2022-07-29T06:22:14;101968.94;;;18.55;70.19
8101;BME280;4093;53.470;9.832;2022-07-29T06:24:41;101980.53;;;19.54;66.70
8101;BME280;4093;53.470;9.832;2022-07-29T06:27:09;101979.53;;;20.07;64.85
8101;BME280;4093;53.470;9.832;2022-07-29T06:29:36;101979.50;;;20.30;65.19
8101;BME280;4093;53.470;9.832;2022-07-29T06:32:05;101979.81;;;21.12;61.65
8101;BME280;4093;53.470;9.832;2022-07-29T06:34:32;101932.72;;;20.64;63.40
8101;BME280;4093;53.470;9.832;2022-07-29T06:36:58;101910.69;;;20.44;63.61
8101;BME280;4093;53.470;9.832;2022-07-29T06:39:25;101892.88;;;20.07;64.67
8101;BME280;4093;53.470;9.832;2022-07-29T06:41:51;101948.25;;;21.33;61.95
8101;BME280;4093;53.470;9.832;2022-07-29T06:44:19;101903.72;;;21.48;60.31
8101;BME280;4093;53.470;9.832;2022-07-29T06:46:45;101908.03;;;22.63;57.63
8101;BME280;4093;53.470;9.832;2022-07-29T06:49:15;101876.41;;;21.89;59.57
8101;BME280;4093;53.470;9.832;2022-07-29T06:51:42;101910.56;;;22.47;58.45
8101;BME280;4093;53.470;9.832;2022-07-29T06:54:08;101869.50;;;22.60;57.67
8101;BME280;4093;53.470;9.832;2022-07-29T06:56:35;101835.38;;;21.66;59.80
8101;BME280;4093;53.470;9.832;2022-07-29T06:59:03;101821.22;;;21.09;60.89
8101;BME280;4093;53.470;9.832;2022-07-29T07:01:29;101845.47;;;21.56;60.66
8101;BME280;4093;53.470;9.832;2022-07-29T07:03:56;101814.03;;;20.08;64.88
8101;BME280;4093;53.470;9.832;2022-07-29T07:06:24;101827.16;;;20.08;64.95
8101;BME280;4093;53.470;9.832;2022-07-29T07:08:50;101813.16;;;19.86;65.23
8101;BME280;4093;53.470;9.832;2022-07-29T07:11:17;101836.06;;;19.82;66.72
8101;BME280;4093;53.470;9.832;2022-07-29T07:13:43;101840.13;;;19.68;67.41
8101;BME280;4093;53.470;9.832;2022-07-29T07:16:10;101823.91;;;19.08;68.96
8101;BME280;4093;53.470;9.832;2022-07-29T07:18:36;101864.91;;;20.06;66.01
8101;BME280;4093;53.470;9.832;2022-07-29T07:21:03;101879.63;;;20.32;65.78
8101;BME280;4093;53.470;9.832;2022-07-29T07:23:32;101879.53;;;20.35;65.78
8101;BME280;4093;53.470;9.832;2022-07-29T07:25:58;101909.91;;;21.47;62.68
8101;BME280;4093;53.470;9.832;2022-07-29T07:28:25;101815.72;;;20.74;63.34
8101;BME280;4093;53.470;9.832;2022-07-29T07:30:52;101863.31;;;21.29;62.51
8101;BME280;4093;53.470;9.832;2022-07-29T07:33:18;101931.19;;;23.27;58.84
8101;BME280;4093;53.470;9.832;2022-07-29T07:35:45;101909.31;;;24.55;54.38
8101;BME280;4093;53.470;9.832;2022-07-29T07:38:11;101839.88;;;26.36;49.26
8101;BME280;4093;53.470;9.832;2022-07-29T07:40:40;101820.13;;;23.15;55.41
8101;BME280;4093;53.470;9.832;2022-07-29T07:43:06;101810.53;;;24.24;52.54
8101;BME280;4093;53.470;9.832;2022-07-29T07:45:33;101795.56;;;23.30;55.78
8101;BME280;4093;53.470;9.832;2022-07-29T07:48:02;101836.44;;;24.94;52.09
8101;BME280;4093;53.470;9.832;2022-07-29T07:50:29;101792.16;;;23.44;55.06
8101;BME280;4093;53.470;9.832;2022-07-29T07:52:55;101790.31;;;23.77;53.98
8101;BME280;4093;53.470;9.832;2022-07-29T07:55:23;101807.94;;;25.28;50.35
8101;BME280;4093;53.470;9.832;2022-07-29T07:57:52;101810.88;;;24.64;52.00
8101;BME280;4093;53.470;9.832;2022-07-29T08:00:18;101836.91;;;27.32;49.40
8101;BME280;4093;53.470;9.832;2022-07-29T08:02:45;101813.63;;;26.97;47.55
8101;BME280;4093;53.470;9.832;2022-07-29T08:05:12;101746.94;;;25.15;49.61
8101;BME280;4093;53.470;9.832;2022-07-29T08:07:42;101818.41;;;27.30;47.74
8101;BME280;4093;53.470;9.832;2022-07-29T08:10:10;101791.78;;;27.93;44.86
8101;BME280;4093;53.470;9.832;2022-07-29T08:12:36;101802.56;;;27.78;46.35
8101;BME280;4093;53.470;9.832;2022-07-29T08:15:06;101786.47;;;29.64;42.02
8101;BME280;4093;53.470;9.832;2022-07-29T08:17:33;101767.56;;;28.55;42.98
8101;BME280;4093;53.470;9.832;2022-07-29T08:19:59;101773.09;;;28.05;43.88
8101;BME280;4093;53.470;9.832;2022-07-29T08:22:26;101781.47;;;28.47;43.94
8101;BME280;4093;53.470;9.832;2022-07-29T08:24:52;101753.81;;;26.91;45.83
8101;BME280;4093;53.470;9.832;2022-07-29T08:27:21;101781.56;;;26.49;48.03
8101;BME280;4093;53.470;9.832;2022-07-29T08:29:48;101791.13;;;30.48;41.90
8101;BME280;4093;53.470;9.832;2022-07-29T08:32:16;101771.22;;;29.44;42.22
8101;BME280;4093;53.470;9.832;2022-07-29T08:34:42;101759.13;;;29.83;41.09
8101;BME280;4093;53.470;9.832;2022-07-29T08:37:11;101780.28;;;28.63;44.86
8101;BME280;4093;53.470;9.832;2022-07-29T08:39:38;101768.41;;;29.57;41.38
8101;BME280;4093;53.470;9.832;2022-07-29T08:42:05;101786.00;;;31.27;38.83
8101;BME280;4093;53.470;9.832;2022-07-29T08:44:32;101769.53;;;31.62;38.96
8101;BME280;4093;53.470;9.832;2022-07-29T08:46:59;101748.84;;;28.79;42.13
8101;BME280;4093;53.470;9.832;2022-07-29T08:49:28;101768.13;;;27.40;45.80
8101;BME280;4093;53.470;9.832;2022-07-29T08:51:55;101769.97;;;26.75;48.30
8101;BME280;4093;53.470;9.832;2022-07-29T08:54:23;101779.06;;;27.35;47.05
8101;BME280;4093;53.470;9.832;2022-07-29T08:56:50;101770.50;;;26.02;49.49
8101;BME280;4093;53.470;9.832;2022-07-29T08:59:19;101758.38;;;25.01;51.67
8101;BME280;4093;53.470;9.832;2022-07-29T09:01:47;101765.75;;;25.25;51.32
8101;BME280;4093;53.470;9.832;2022-07-29T09:04:15;101773.94;;;25.76;49.65
8101;BME280;4093;53.470;9.832;2022-07-29T09:06:45;101780.50;;;26.77;48.43
8101;BME280;4093;53.470;9.832;2022-07-29T09:09:13;101768.75;;;26.41;48.02
8101;BME280;4093;53.470;9.832;2022-07-29T09:11:40;101781.34;;;26.77;48.73
8101;BME280;4093;53.470;9.832;2022-07-29T09:14:07;101778.44;;;26.42;50.02
8101;BME280;4093;53.470;9.832;2022-07-29T09:16:48;101756.47;;;24.75;52.57
8101;BME280;4093;53.470;9.832;2022-07-29T09:19:23;101767.97;;;24.59;53.62
8101;BME280;4093;53.470;9.832;2022-07-29T09:21:51;101776.66;;;25.20;52.37
8101;BME280;4093;53.470;9.832;2022-07-29T09:24:25;101756.66;;;24.72;53.04
8101;BME280;4093;53.470;9.832;2022-07-29T09:26:51;101778.63;;;25.17;52.30
8101;BME280;4093;53.470;9.832;2022-07-29T09:29:20;101768.66;;;24.77;52.30
8101;BME280;4093;53.470;9.832;2022-07-29T09:31:48;101738.81;;;24.00;53.85
8101;BME280;4093;53.470;9.832;2022-07-29T09:34:16;101771.03;;;25.25;52.52
8101;BME280;4093;53.470;9.832;2022-07-29T09:36:45;101752.28;;;24.42;54.08
8101;BME280;4093;53.470;9.832;2022-07-29T09:39:13;101785.00;;;24.69;53.83
8101;BME280;4093;53.470;9.832;2022-07-29T09:41:48;101768.34;;;24.53;53.66
8101;BME280;4093;53.470;9.832;2022-07-29T09:44:15;101754.34;;;24.21;54.98
8101;BME280;4093;53.470;9.832;2022-07-29T09:46:53;101777.78;;;24.43;55.00
8101;BME280;4093;53.470;9.832;2022-07-29T09:49:20;101753.28;;;24.09;55.04
8101;BME280;4093;53.470;9.832;2022-07-29T09:51:47;101777.38;;;24.93;53.05
8101;BME280;4093;53.470;9.832;2022-07-29T09:54:25;101778.78;;;24.70;54.27
8101;BME280;4093;53.470;9.832;2022-07-29T09:56:53;101755.56;;;24.15;55.49
8101;BME280;4093;53.470;9.832;2022-07-29T09:59:20;101779.09;;;24.50;55.24
8101;BME280;4093;53.470;9.832;2022-07-29T10:01:51;101759.41;;;24.10;54.89
8101;BME280;4093;53.470;9.832;2022-07-29T10:04:18;101794.88;;;25.25;53.43
8101;BME280;4093;53.470;9.832;2022-07-29T10:06:58;101787.13;;;25.07;52.90
8101;BME280;4093;53.470;9.832;2022-07-29T10:09:27;101761.34;;;24.52;53.45
8101;BME280;4093;53.470;9.832;2022-07-29T10:12:08;101766.50;;;25.12;52.09
8101;BME280;4093;53.470;9.832;2022-07-29T10:14:37;101793.53;;;25.60;52.58
8101;BME280;4093;53.470;9.832;2022-07-29T10:17:04;101772.53;;;26.51;50.34
8101;BME280;4093;53.470;9.832;2022-07-29T10:19:32;101740.22;;;24.95;51.75
8101;BME280;4093;53.470;9.832;2022-07-29T10:22:00;101769.16;;;26.22;51.12
8101;BME280;4093;53.470;9.832;2022-07-29T10:24:30;101753.13;;;26.89;47.45
8101;BME280;4093;53.470;9.832;2022-07-29T10:26:59;101742.88;;;26.45;48.67
8101;BME280;4093;53.470;9.832;2022-07-29T10:29:25;101721.63;;;25.52;50.42
8101;BME280;4093;53.470;9.832;2022-07-29T10:32:02;101742.03;;;26.44;48.88
8101;BME280;4093;53.470;9.832;2022-07-29T10:34:43;101747.25;;;26.84;48.92
8101;BME280;4093;53.470;9.832;2022-07-29T10:37:19;101738.97;;;27.02;47.45
8101;BME280;4093;53.470;9.832;2022-07-29T10:40:00;101739.31;;;27.71;45.72
8101;BME280;4093;53.470;9.832;2022-07-29T10:42:50;101709.22;;;25.80;47.22
8101;BME280;4093;53.470;9.832;2022-07-29T10:45:18;101708.06;;;25.57;48.74
8101;BME280;4093;53.470;9.832;2022-07-29T10:47:45;101717.41;;;26.93;45.70
8101;BME280;4093;53.470;9.832;2022-07-29T10:50:12;101714.88;;;26.79;45.27
8101;BME280;4093;53.470;9.832;2022-07-29T10:52:55;101720.59;;;26.98;45.76
8101;BME280;4093;53.470;9.832;2022-07-29T10:55:34;101711.56;;;26.88;45.66
8101;BME280;4093;53.470;9.832;2022-07-29T10:58:12;101705.91;;;26.16;47.38
8101;BME280;4093;53.470;9.832;2022-07-29T11:00:39;101720.69;;;26.97;45.75
8101;BME280;4093;53.470;9.832;2022-07-29T11:03:06;101707.38;;;27.83;45.18
8101;BME280;4093;53.470;9.832;2022-07-29T11:05:51;101714.13;;;27.39;45.05
8101;BME280;4093;53.470;9.832;2022-07-29T11:08:23;101703.56;;;27.27;44.78
8101;BME280;4093;53.470;9.832;2022-07-29T11:10:53;101694.84;;;26.49;47.57
8101;BME280;4093;53.470;9.832;2022-07-29T11:13:47;101714.81;;;27.30;45.77
8101;BME280;4093;53.470;9.832;2022-07-29T11:16:15;101703.44;;;27.28;45.28
8101;BME280;4093;53.470;9.832;2022-07-29T11:19:20;101680.28;;;26.17;47.19
8101;BME280;4093;53.470;9.832;2022-07-29T11:21:46;101691.94;;;26.27;47.78
8101;BME280;4093;53.470;9.832;2022-07-29T11:24:16;101650.00;;;26.06;47.50
8101;BME280;4093;53.470;9.832;2022-07-29T11:26:44;101696.09;;;27.56;45.11
8101;BME280;4093;53.470;9.832;2022-07-29T11:29:18;101679.31;;;26.69;45.56
8101;BME280;4093;53.470;9.832;2022-07-29T11:31:47;101690.25;;;27.75;45.31
8101;BME280;4093;53.470;9.832;2022-07-29T11:34:21;101682.47;;;27.84;44.36
8101;BME280;4093;53.470;9.832;2022-07-29T11:37:16;101687.00;;;28.06;44.36
8101;BME280;4093;53.470;9.832;2022-07-29T11:39:45;101664.88;;;27.47;44.82
8101;BME280;4093;53.470;9.832;2022-07-29T11:42:39;101679.38;;;27.06;45.43
8101;BME280;4093;53.470;9.832;2022-07-29T11:45:08;101683.22;;;27.98;44.42
8101;BME280;4093;53.470;9.832;2022-07-29T11:47:37;101675.81;;;27.55;43.44
8101;BME280;4093;53.470;9.832;2022-07-29T11:50:06;101660.78;;;27.06;44.82
8101;BME280;4093;53.470;9.832;2022-07-29T11:52:35;101670.63;;;27.77;43.81
8101;BME280;4093;53.470;9.832;2022-07-29T11:55:10;101661.84;;;28.10;43.01
8101;BME280;4093;53.470;9.832;2022-07-29T11:57:45;101664.38;;;28.01;43.31
8101;BME280;4093;53.470;9.832;2022-07-29T12:00:21;101655.88;;;27.84;41.70
8101;BME280;4093;53.470;9.832;2022-07-29T12:02:48;101646.06;;;27.13;43.37
8101;BME280;4093;53.470;9.832;2022-07-29T12:05:15;101654.34;;;26.84;43.14
8101;BME280;4093;53.470;9.832;2022-07-29T12:07:41;101649.78;;;27.71;42.62
8101;BME280;4093;53.470;9.832;2022-07-29T12:10:08;101652.16;;;27.98;42.55
8101;BME280;4093;53.470;9.832;2022-07-29T12:12:35;101641.13;;;27.80;41.39
8101;BME280;4093;53.470;9.832;2022-07-29T12:15:13;101647.00;;;28.98;41.67
8101;BME280;4093;53.470;9.832;2022-07-29T12:17:40;101649.31;;;28.80;40.92
8101;BME280;4093;53.470;9.832;2022-07-29T12:20:07;101642.19;;;29.03;41.30
8101;BME280;4093;53.470;9.832;2022-07-29T12:22:35;101645.09;;;28.55;40.43
8101;BME280;4093;53.470;9.832;2022-07-29T12:25:06;101628.63;;;28.05;42.12
8101;BME280;4093;53.470;9.832;2022-07-29T12:27:34;101641.00;;;28.51;41.20
8101;BME280;4093;53.470;9.832;2022-07-29T12:30:03;101635.16;;;28.34;42.57
8101;BME280;4093;53.470;9.832;2022-07-29T12:32:33;101625.50;;;28.33;41.46
8101;BME280;4093;53.470;9.832;2022-07-29T12:35:02;101623.78;;;28.32;41.41
8101;BME280;4093;53.470;9.832;2022-07-29T12:37:30;101626.19;;;28.13;41.97
8101;BME280;4093;53.470;9.832;2022-07-29T12:39:57;101622.47;;;28.16;41.55
8101;BME280;4093;53.470;9.832;2022-07-29T12:42:23;101622.72;;;28.24;41.18
8101;BME280;4093;53.470;9.832;2022-07-29T12:44:50;101626.44;;;28.10;42.67
8101;BME280;4093;53.470;9.832;2022-07-29T12:47:18;101607.34;;;28.16;41.44
8101;BME280;4093;53.470;9.832;2022-07-29T12:49:46;101630.66;;;29.14;41.12
8101;BME280;4093;53.470;9.832;2022-07-29T12:52:27;101611.94;;;28.93;40.58
8101;BME280;4093;53.470;9.832;2022-07-29T12:54:54;101634.28;;;29.24;40.41
8101;BME280;4093;53.470;9.832;2022-07-29T12:57:21;101617.66;;;28.54;41.16
8101;BME280;4093;53.470;9.832;2022-07-29T13:00:13;101628.53;;;28.74;40.12
8101;BME280;4093;53.470;9.832;2022-07-29T13:02:41;101612.34;;;29.52;39.71
8101;BME280;4093;53.470;9.832;2022-07-29T13:05:10;101599.59;;;29.56;39.07
8101;BME280;4093;53.470;9.832;2022-07-29T13:07:39;101608.94;;;29.50;40.54
8101;BME280;4093;53.470;9.832;2022-07-29T13:10:14;101604.66;;;29.27;40.38
8101;BME280;4093;53.470;9.832;2022-07-29T13:13:02;101605.41;;;28.07;39.99
8101;BME280;4093;53.470;9.832;2022-07-29T13:15:29;101605.03;;;28.23;38.67
8101;BME280;4093;53.470;9.832;2022-07-29T13:17:56;101609.16;;;28.72;37.99
8101;BME280;4093;53.470;9.832;2022-07-29T13:20:27;101574.13;;;28.99;37.12